sensor_id;sensor_type;location;lat;lon;timestamp;pressure;altitude;pressure_sealevel;temperature;humidity
31092;BME280;17747;51.070;10.930;2023-02-02T14:09:04;100982.69;;;8.58;43.95
31092;BME280;17747;51.070;10.930;2023-02-02T14:10:41;100988.63;;;7.67;45.92
31092;BME280;17747;51.070;10.930;2023-02-02T14:12:14;100971.84;;;6.67;49.06
31092;BME280;17747;51.070;10.930;2023-02-02T14:13:50;100978.41;;;6.29;50.47
31092;BME280;17747;51.070;10.930;2023-02-02T14:15:42;100980.59;;;5.85;51.24
31092;BME280;17747;51.070;10.930;2023-02-02T14:17:49;100996.56;;;5.58;54.00
31092;BME280;17747;51.070;10.930;2023-02-02T14:19:47;100989.22;;;5.18;54.41
31092;BME280;17747;51.070;10.930;2023-02-02T14:23:51;101004.44;;;5.01;58.81
31092;BME280;17747;51.070;10.930;2023-02-02T14:25:51;101002.56;;;4.90;56.88
31092;BME280;17747;51.070;10.930;2023-02-02T14:27:55;101010.22;;;4.88;57.75
31092;BME280;17747;51.070;10.930;2023-02-02T14:29:35;101016.94;;;4.80;58.59
31092;BME280;17747;51.070;10.930;2023-02-02T14:31:42;101028.16;;;4.84;57.86
31092;BME280;17747;51.070;10.930;2023-02-02T14:33:26;101031.59;;;4.86;58.43
31092;BME280;17747;51.070;10.930;2023-02-02T14:35:53;101027.50;;;4.98;56.76
31092;BME280;17747;51.070;10.930;2023-02-02T14:37:40;101034.34;;;4.99;56.48
31092;BME280;17747;51.070;10.930;2023-02-02T14:39:18;101040.97;;;4.84;58.63
31092;BME280;17747;51.070;10.930;2023-02-02T14:40:56;101036.72;;;4.84;60.09
31092;BME280;17747;51.070;10.930;2023-02-02T14:42:44;101040.97;;;4.82;60.55
31092;BME280;17747;51.070;10.930;2023-02-02T14:44:35;101040.16;;;4.85;59.39
31092;BME280;17747;51.070;10.930;2023-02-02T14:46:23;101041.69;;;4.73;61.30
31092;BME280;17747;51.070;10.930;2023-02-02T14:47:57;101044.97;;;4.66;60.80
31092;BME280;17747;51.070;10.930;2023-02-02T14:49:33;101057.16;;;4.77;59.37
31092;BME280;17747;51.070;10.930;2023-02-02T14:51:13;101050.38;;;4.83;58.89
31092;BME280;17747;51.070;10.930;2023-02-02T14:52:56;101061.63;;;4.91;59.79
31092;BME280;17747;51.070;10.930;2023-02-02T14:54:33;101068.34;;;4.83;58.18
31092;BME280;17747;51.070;10.930;2023-02-02T14:56:09;101075.78;;;4.66;58.20
31092;BME280;17747;51.070;10.930;2023-02-02T14:57:42;101080.16;;;4.72;59.83
31092;BME280;17747;51.070;10.930;2023-02-02T14:59:16;101083.53;;;4.69;60.07
31092;BME280;17747;51.070;10.930;2023-02-02T15:00:54;101084.00;;;4.44;60.54
31092;BME280;17747;51.070;10.930;2023-02-02T15:02:32;101087.31;;;4.39;62.95
31092;BME280;17747;51.070;10.930;2023-02-02T15:04:23;101093.78;;;4.19;63.85
31092;BME280;17747;51.070;10.930;2023-02-02T15:06:01;101095.59;;;4.23;61.48
31092;BME280;17747;51.070;10.930;2023-02-02T15:07:47;101095.72;;;4.30;64.53
31092;BME280;17747;51.070;10.930;2023-02-02T15:09:35;101090.06;;;4.03;62.69
31092;BME280;17747;51.070;10.930;2023-02-02T15:11:08;101092.03;;;4.16;63.94
31092;BME280;17747;51.070;10.930;2023-02-02T15:13:03;101100.16;;;3.94;62.79
31092;BME280;17747;51.070;10.930;2023-02-02T15:14:40;101105.34;;;3.97;65.11
31092;BME280;17747;51.070;10.930;2023-02-02T15:16:20;101107.75;;;3.89;65.15
31092;BME280;17747;51.070;10.930;2023-02-02T15:18:04;101111.50;;;3.63;67.49
31092;BME280;17747;51.070;10.930;2023-02-02T15:19:39;101114.22;;;3.72;67.73
31092;BME280;17747;51.070;10.930;2023-02-02T15:21:14;101121.31;;;3.84;66.68
31092;BME280;17747;51.070;10.930;2023-02-02T15:22:51;101123.88;;;3.84;66.53
31092;BME280;17747;51.070;10.930;2023-02-02T15:24:26;101126.31;;;3.78;67.32
31092;BME280;17747;51.070;10.930;2023-02-02T15:26:04;101127.97;;;3.74;66.91
31092;BME280;17747;51.070;10.930;2023-02-02T15:27:38;101134.94;;;3.83;68.17
31092;BME280;17747;51.070;10.930;2023-02-02T15:29:23;101129.06;;;3.87;67.97
31092;BME280;17747;51.070;10.930;2023-02-02T15:31:01;101130.75;;;3.85;67.25
31092;BME280;17747;51.070;10.930;2023-02-02T15:32:36;101135.00;;;3.84;68.61
31092;BME280;17747;51.070;10.930;2023-02-02T15:34:13;101142.63;;;3.80;66.32
31092;BME280;17747;51.070;10.930;2023-02-02T15:35:47;101134.88;;;3.78;67.53
31092;BME280;17747;51.070;10.930;2023-02-02T15:40:35;101149.34;;;3.37;68.32
31092;BME280;17747;51.070;10.930;2023-02-02T15:42:14;101141.66;;;3.37;67.79
31092;BME280;17747;51.070;10.930;2023-02-02T15:44:18;101154.00;;;3.16;69.62
31092;BME280;17747;51.070;10.930;2023-02-02T15:45:51;101159.13;;;3.16;70.91
31092;BME280;17747;51.070;10.930;2023-02-02T15:47:29;101160.84;;;3.17;70.98
31092;BME280;17747;51.070;10.930;2023-02-02T15:49:27;101162.25;;;2.70;72.31
31092;BME280;17747;51.070;10.930;2023-02-02T15:51:01;101169.50;;;2.88;72.44
31092;BME280;17747;51.070;10.930;2023-02-02T15:52:44;101167.16;;;2.96;71.88
31092;BME280;17747;51.070;10.930;2023-02-02T15:54:21;101175.13;;;2.73;70.08
31092;BME280;17747;51.070;10.930;2023-02-02T15:55:55;101172.94;;;1.93;71.88
31092;BME280;17747;51.070;10.930;2023-02-02T15:57:30;101178.78;;;1.89;74.00
31092;BME280;17747;51.070;10.930;2023-02-02T15:59:02;101177.88;;;1.59;74.37
31092;BME280;17747;51.070;10.930;2023-02-02T16:00:35;101181.28;;;1.58;74.55
31092;BME280;17747;51.070;10.930;2023-02-02T16:02:18;101177.78;;;1.56;74.01
31092;BME280;17747;51.070;10.930;2023-02-02T16:03:57;101183.50;;;1.47;74.55
31092;BME280;17747;51.070;10.930;2023-02-02T16:05:41;101189.63;;;1.52;74.88
31092;BME280;17747;51.070;10.930;2023-02-02T16:07:16;101188.63;;;1.49;74.35
31092;BME280;17747;51.070;10.930;2023-02-02T16:08:48;101188.66;;;1.50;75.83
31092;BME280;17747;51.070;10.930;2023-02-02T16:10:21;101190.13;;;1.42;75.08
31092;BME280;17747;51.070;10.930;2023-02-02T16:11:52;101196.78;;;1.37;75.27
31092;BME280;17747;51.070;10.930;2023-02-02T16:13:26;101197.97;;;1.48;75.21
31092;BME280;17747;51.070;10.930;2023-02-02T16:14:59;101202.50;;;1.57;74.94
31092;BME280;17747;51.070;10.930;2023-02-02T16:16:34;101210.16;;;1.57;74.46
31092;BME280;17747;51.070;10.930;2023-02-02T16:18:12;101207.97;;;1.41;75.30
31092;BME280;17747;51.070;10.930;2023-02-02T16:19:45;101213.63;;;1.31;75.55
31092;BME280;17747;51.070;10.930;2023-02-02T16:21:22;101226.06;;;1.22;76.59
31092;BME280;17747;51.070;10.930;2023-02-02T16:22:56;101224.66;;;1.04;76.85
31092;BME280;17747;51.070;10.930;2023-02-02T16:24:33;101225.16;;;0.94;76.43
31092;BME280;17747;51.070;10.930;2023-02-02T16:26:06;101228.06;;;1.05;76.83
31092;BME280;17747;51.070;10.930;2023-02-02T16:27:42;101239.56;;;1.18;77.46
31092;BME280;17747;51.070;10.930;2023-02-02T16:29:15;101239.25;;;1.08;76.05
31092;BME280;17747;51.070;10.930;2023-02-02T16:30:48;101240.59;;;0.97;76.34
31092;BME280;17747;51.070;10.930;2023-02-02T16:32:28;101235.78;;;0.81;77.34
31092;BME280;17747;51.070;10.930;2023-02-02T16:34:00;101240.09;;;0.82;78.04
31092;BME280;17747;51.070;10.930;2023-02-02T16:35:35;101242.22;;;0.95;77.38
31092;BME280;17747;51.070;10.930;2023-02-02T16:37:13;101247.63;;;1.04;77.50
31092;BME280;17747;51.070;10.930;2023-02-02T16:38:45;101244.41;;;1.10;77.12
31092;BME280;17747;51.070;10.930;2023-02-02T16:40:24;101248.75;;;0.87;76.62
31092;BME280;17747;51.070;10.930;2023-02-02T16:42:07;101249.22;;;0.77;78.24
31092;BME280;17747;51.070;10.930;2023-02-02T16:43:40;101256.53;;;0.67;78.94
31092;BME280;17747;51.070;10.930;2023-02-02T16:45:31;101253.75;;;0.84;79.09
31092;BME280;17747;51.070;10.930;2023-02-02T16:47:05;101249.66;;;0.89;77.82
31092;BME280;17747;51.070;10.930;2023-02-02T16:48:40;101252.88;;;0.84;77.52
31092;BME280;17747;51.070;10.930;2023-02-02T16:50:28;101253.53;;;0.78;76.93
31092;BME280;17747;51.070;10.930;2023-02-02T16:52:12;101254.81;;;0.66;77.01
31092;BME280;17747;51.070;10.930;2023-02-02T16:53:47;101264.72;;;0.34;76.51
31092;BME280;17747;51.070;10.930;2023-02-02T16:55:20;101267.34;;;0.14;78.63
31092;BME280;17747;51.070;10.930;2023-02-02T16:56:58;101269.53;;;0.05;78.89
31092;BME280;17747;51.070;10.930;2023-02-02T16:58:32;101269.97;;;-0.07;79.46
31092;BME280;17747;51.070;10.930;2023-02-02T17:00:17;101271.44;;;-0.12;78.67
31092;BME280;17747;51.070;10.930;2023-02-02T17:01:51;101277.66;;;-0.05;78.61
31092;BME280;17747;51.070;10.930;2023-02-02T17:03:28;101275.16;;;-0.04;78.26
31092;BME280;17747;51.070;10.930;2023-02-02T17:05:05;101275.75;;;-0.11;79.56
31092;BME280;17747;51.070;10.930;2023-02-02T17:06:39;101274.31;;;-0.04;79.98
31092;BME280;17747;51.070;10.930;2023-02-02T17:08:11;101278.81;;;-0.20;79.75
31092;BME280;17747;51.070;10.930;2023-02-02T17:09:45;101279.63;;;-0.21;80.57
31092;BME280;17747;51.070;10.930;2023-02-02T17:11:21;101281.44;;;-0.18;79.71
31092;BME280;17747;51.070;10.930;2023-02-02T17:12:54;101283.00;;;0.01;79.96
31092;BME280;17747;51.070;10.930;2023-02-02T17:14:29;101281.38;;;0.03;79.65
31092;BME280;17747;51.070;10.930;2023-02-02T17:16:01;101289.81;;;0.02;78.93
31092;BME280;17747;51.070;10.930;2023-02-02T17:17:33;101288.75;;;-0.03;79.24
31092;BME280;17747;51.070;10.930;2023-02-02T17:19:05;101295.31;;;-0.10;78.31
31092;BME280;17747;51.070;10.930;2023-02-02T17:20:38;101294.75;;;-0.03;79.40
31092;BME280;17747;51.070;10.930;2023-02-02T17:22:10;101290.28;;;-0.08;78.81
31092;BME280;17747;51.070;10.930;2023-02-02T17:23:42;101299.19;;;-0.20;79.93
31092;BME280;17747;51.070;10.930;2023-02-02T17:25:15;101299.06;;;-0.23;79.68
31092;BME280;17747;51.070;10.930;2023-02-02T17:26:48;101295.97;;;-0.16;81.57
31092;BME280;17747;51.070;10.930;2023-02-02T17:28:22;101306.38;;;-0.09;79.86
31092;BME280;17747;51.070;10.930;2023-02-02T17:29:54;101307.44;;;-0.04;79.87
31092;BME280;17747;51.070;10.930;2023-02-02T17:31:27;101304.41;;;0.06;81.21
31092;BME280;17747;51.070;10.930;2023-02-02T17:32:58;101310.53;;;-0.12;79.80
31092;BME280;17747;51.070;10.930;2023-02-02T17:34:30;101306.47;;;-0.29;79.87
31092;BME280;17747;51.070;10.930;2023-02-02T17:36:03;101312.88;;;-0.38;80.74
31092;BME280;17747;51.070;10.930;2023-02-02T17:37:35;101306.69;;;-0.45;80.82
31092;BME280;17747;51.070;10.930;2023-02-02T17:39:06;101310.16;;;-0.43;80.91
31092;BME280;17747;51.070;10.930;2023-02-02T17:40:38;101315.78;;;-0.50;81.05
31092;BME280;17747;51.070;10.930;2023-02-02T17:42:18;101315.28;;;-0.41;81.28
31092;BME280;17747;51.070;10.930;2023-02-02T17:43:51;101312.31;;;-0.31;80.43
31092;BME280;17747;51.070;10.930;2023-02-02T17:45:28;101315.38;;;-0.18;82.00
31092;BME280;17747;51.070;10.930;2023-02-02T17:46:59;101316.47;;;-0.13;81.59
31092;BME280;17747;51.070;10.930;2023-02-02T17:48:31;101312.97;;;-0.15;79.88
31092;BME280;17747;51.070;10.930;2023-02-02T17:50:04;101312.50;;;-0.47;79.99
31092;BME280;17747;51.070;10.930;2023-02-02T17:51:37;101308.03;;;-0.32;79.45
31092;BME280;17747;51.070;10.930;2023-02-02T17:53:14;101311.75;;;-0.24;80.80
31092;BME280;17747;51.070;10.930;2023-02-02T17:54:45;101313.53;;;-0.22;80.79
31092;BME280;17747;51.070;10.930;2023-02-02T17:56:17;101318.47;;;-0.26;79.39
31092;BME280;17747;51.070;10.930;2023-02-02T17:57:50;101316.66;;;-0.29;79.90
31092;BME280;17747;51.070;10.930;2023-02-02T17:59:23;101315.78;;;-0.29;80.07
31092;BME280;17747;51.070;10.930;2023-02-02T18:00:54;101309.53;;;-0.37;79.45
31092;BME280;17747;51.070;10.930;2023-02-02T18:02:28;101312.41;;;-0.50;80.31
31092;BME280;17747;51.070;10.930;2023-02-02T18:04:00;101317.28;;;-0.55;80.77
31092;BME280;17747;51.070;10.930;2023-02-02T18:05:31;101312.19;;;-0.55;81.40
31092;BME280;17747;51.070;10.930;2023-02-02T18:07:04;101321.09;;;-0.45;81.16
31092;BME280;17747;51.070;10.930;2023-02-02T18:08:38;101316.28;;;-0.38;81.73
31092;BME280;17747;51.070;10.930;2023-02-02T18:10:11;101319.72;;;-0.37;80.14
31092;BME280;17747;51.070;10.930;2023-02-02T18:11:43;101319.78;;;-0.56;81.00
31092;BME280;17747;51.070;10.930;2023-02-02T18:13:20;101313.41;;;-0.66;80.19
31092;BME280;17747;51.070;10.930;2023-02-02T18:14:52;101311.69;;;-0.67;80.71
31092;BME280;17747;51.070;10.930;2023-02-02T18:16:23;101318.19;;;-0.74;81.87
31092;BME280;17747;51.070;10.930;2023-02-02T18:17:55;101320.97;;;-0.69;81.71
31092;BME280;17747;51.070;10.930;2023-02-02T18:19:27;101316.34;;;-0.57;81.31
31092;BME280;17747;51.070;10.930;2023-02-02T18:20:58;101316.78;;;-0.67;80.26
31092;BME280;17747;51.070;10.930;2023-02-02T18:22:31;101324.16;;;-0.52;80.52
31092;BME280;17747;51.070;10.930;2023-02-02T18:24:03;101318.28;;;-0.51;79.65
31092;BME280;17747;51.070;10.930;2023-02-02T18:25:35;101321.63;;;-0.52;80.06
31092;BME280;17747;51.070;10.930;2023-02-02T18:27:08;101313.97;;;-0.52;80.43
31092;BME280;17747;51.070;10.930;2023-02-02T18:28:40;101317.47;;;-0.71;80.77
31092;BME280;17747;51.070;10.930;2023-02-02T18:30:12;101305.53;;;-0.93;80.66
31092;BME280;17747;51.070;10.930;2023-02-02T18:31:44;101312.63;;;-0.86;81.15
31092;BME280;17747;51.070;10.930;2023-02-02T18:33:16;101310.91;;;-0.85;81.13
31092;BME280;17747;51.070;10.930;2023-02-02T18:34:48;101311.88;;;-0.83;82.10
31092;BME280;17747;51.070;10.930;2023-02-02T18:36:25;101308.28;;;-0.88;80.82
31092;BME280;17747;51.070;10.930;2023-02-02T18:37:58;101306.88;;;-1.01;81.48
31092;BME280;17747;51.070;10.930;2023-02-02T18:39:29;101306.63;;;-1.07;81.37
31092;BME280;17747;51.070;10.930;2023-02-02T18:41:01;101305.16;;;-1.02;80.78
31092;BME280;17747;51.070;10.930;2023-02-02T18:42:34;101302.94;;;-1.13;80.89
31092;BME280;17747;51.070;10.930;2023-02-02T18:44:05;101308.81;;;-1.14;82.57
31092;BME280;17747;51.070;10.930;2023-02-02T18:45:37;101303.88;;;-1.11;82.95
31092;BME280;17747;51.070;10.930;2023-02-02T18:47:08;101305.03;;;-1.05;81.38
31092;BME280;17747;51.070;10.930;2023-02-02T18:48:41;101304.66;;;-0.93;81.57
31092;BME280;17747;51.070;10.930;2023-02-02T18:50:13;101299.25;;;-1.01;81.32
31092;BME280;17747;51.070;10.930;2023-02-02T18:51:44;101304.00;;;-1.08;82.29
31092;BME280;17747;51.070;10.930;2023-02-02T18:53:18;101306.75;;;-1.04;82.85
31092;BME280;17747;51.070;10.930;2023-02-02T18:54:50;101299.00;;;-1.07;81.82
31092;BME280;17747;51.070;10.930;2023-02-02T18:56:50;101297.56;;;-1.50;82.36
31092;BME280;17747;51.070;10.930;2023-02-02T18:58:22;101299.03;;;-1.36;83.69
31092;BME280;17747;51.070;10.930;2023-02-02T18:59:55;101297.78;;;-1.25;82.79
31092;BME280;17747;51.070;10.930;2023-02-02T19:01:27;101298.72;;;-1.23;83.12
31092;BME280;17747;51.070;10.930;2023-02-02T19:02:59;101299.72;;;-1.59;82.91
31092;BME280;17747;51.070;10.930;2023-02-02T19:04:30;101296.84;;;-1.48;83.38
31092;BME280;17747;51.070;10.930;2023-02-02T19:06:03;101302.38;;;-1.37;83.20
31092;BME280;17747;51.070;10.930;2023-02-02T19:07:52;101300.22;;;-1.28;82.80
31092;BME280;17747;51.070;10.930;2023-02-02T19:09:25;101303.00;;;-1.22;82.95
31092;BME280;17747;51.070;10.930;2023-02-02T19:10:59;101308.09;;;-1.22;82.20
31092;BME280;17747;51.070;10.930;2023-02-02T19:12:33;101298.84;;;-1.41;81.30
31092;BME280;17747;51.070;10.930;2023-02-02T19:14:08;101303.94;;;-1.41;82.75
31092;BME280;17747;51.070;10.930;2023-02-02T19:15:43;101305.69;;;-1.19;82.01
31092;BME280;17747;51.070;10.930;2023-02-02T19:17:19;101311.44;;;-1.23;81.87
31092;BME280;17747;51.070;10.930;2023-02-02T19:18:54;101308.44;;;-1.54;82.55
31092;BME280;17747;51.070;10.930;2023-02-02T19:20:28;101304.88;;;-1.58;82.22
31092;BME280;17747;51.070;10.930;2023-02-02T19:22:05;101298.44;;;-1.50;82.99
31092;BME280;17747;51.070;10.930;2023-02-02T19:23:43;101300.56;;;-1.40;82.48
31092;BME280;17747;51.070;10.930;2023-02-02T19:25:16;101300.03;;;-1.33;82.81
31092;BME280;17747;51.070;10.930;2023-02-02T19:26:49;101306.31;;;-1.25;81.65
31092;BME280;17747;51.070;10.930;2023-02-02T19:28:24;101307.28;;;-1.21;82.44
31092;BME280;17747;51.070;10.930;2023-02-02T19:29:57;101311.75;;;-1.15;82.49
31092;BME280;17747;51.070;10.930;2023-02-02T19:31:30;101309.50;;;-1.08;82.82
31092;BME280;17747;51.070;10.930;2023-02-02T19:33:08;101307.22;;;-1.23;81.28
31092;BME280;17747;51.070;10.930;2023-02-02T19:34:41;101309.34;;;-1.33;81.78
31092;BME280;17747;51.070;10.930;2023-02-02T19:36:14;101312.94;;;-1.28;82.84
31092;BME280;17747;51.070;10.930;2023-02-02T19:37:47;101316.53;;;-1.23;82.14
31092;BME280;17747;51.070;10.930;2023-02-02T19:39:22;101316.22;;;-1.31;82.29
31092;BME280;17747;51.070;10.930;2023-02-02T19:40:59;101320.69;;;-1.25;82.24
31092;BME280;17747;51.070;10.930;2023-02-02T19:42:32;101315.88;;;-1.19;82.68
31092;BME280;17747;51.070;10.930;2023-02-02T19:44:14;101316.84;;;-1.15;82.25
31092;BME280;17747;51.070;10.930;2023-02-02T19:45:47;101320.44;;;-1.10;83.14
31092;BME280;17747;51.070;10.930;2023-02-02T19:47:24;101318.28;;;-1.01;82.77
31092;BME280;17747;51.070;10.930;2023-02-02T19:49:03;101315.72;;;-1.01;81.92
31092;BME280;17747;51.070;10.930;2023-02-02T19:50:38;101324.28;;;-1.20;82.88
31092;BME280;17747;51.070;10.930;2023-02-02T19:52:15;101311.25;;;-1.28;81.37
31092;BME280;17747;51.070;10.930;2023-02-02T19:53:48;101310.78;;;-1.19;81.91
31092;BME280;17747;51.070;10.930;2023-02-02T19:55:22;101317.34;;;-1.03;82.14
31092;BME280;17747;51.070;10.930;2023-02-02T19:56:57;101325.28;;;-0.96;82.31
31092;BME280;17747;51.070;10.930;2023-02-02T19:58:33;101314.31;;;-0.95;82.47
31092;BME280;17747;51.070;10.930;2023-02-02T20:00:16;101315.59;;;-0.84;82.92
31092;BME280;17747;51.070;10.930;2023-02-02T20:01:49;101313.91;;;-0.83;82.47
31092;BME280;17747;51.070;10.930;2023-02-02T20:03:22;101305.06;;;-0.93;82.42
31092;BME280;17747;51.070;10.930;2023-02-02T20:04:59;101306.16;;;-1.07;82.51
31092;BME280;17747;51.070;10.930;2023-02-02T20:06:32;101305.69;;;-1.19;81.44
31092;BME280;17747;51.070;10.930;2023-02-02T20:08:08;101305.25;;;-1.09;82.27
31092;BME280;17747;51.070;10.930;2023-02-02T20:09:48;101298.28;;;-1.13;81.86
31092;BME280;17747;51.070;10.930;2023-02-02T20:11:25;101301.59;;;-0.95;82.02
31092;BME280;17747;51.070;10.930;2023-02-02T20:13:11;101303.69;;;-0.85;82.76
31092;BME280;17747;51.070;10.930;2023-02-02T20:14:46;101299.63;;;-0.80;81.53
31092;BME280;17747;51.070;10.930;2023-02-02T20:16:20;101304.91;;;-0.75;82.26
31092;BME280;17747;51.070;10.930;2023-02-02T20:17:54;101303.22;;;-0.75;82.21
31092;BME280;17747;51.070;10.930;2023-02-02T20:19:31;101300.94;;;-0.69;81.78
31092;BME280;17747;51.070;10.930;2023-02-02T20:21:08;101303.94;;;-0.79;82.10
31092;BME280;17747;51.070;10.930;2023-02-02T20:22:40;101298.09;;;-0.97;82.18
31092;BME280;17747;51.070;10.930;2023-02-02T20:24:14;101292.56;;;-1.07;82.76
31092;BME280;17747;51.070;10.930;2023-02-02T20:25:47;101301.34;;;-1.01;81.63
31092;BME280;17747;51.070;10.930;2023-02-02T20:27:20;101309.53;;;-0.87;82.33
31092;BME280;17747;51.070;10.930;2023-02-02T20:28:53;101306.06;;;-0.89;82.11
31092;BME280;17747;51.070;10.930;2023-02-02T20:30:27;101305.31;;;-0.87;82.23
31092;BME280;17747;51.070;10.930;2023-02-02T20:32:03;101299.88;;;-0.94;83.38
31092;BME280;17747;51.070;10.930;2023-02-02T20:33:35;101301.25;;;-0.82;83.12
31092;BME280;17747;51.070;10.930;2023-02-02T20:35:21;101299.19;;;-0.70;82.21
31092;BME280;17747;51.070;10.930;2023-02-02T20:36:57;101305.44;;;-0.62;82.58
31092;BME280;17747;51.070;10.930;2023-02-02T20:38:37;101303.72;;;-0.63;82.83
31092;BME280;17747;51.070;10.930;2023-02-02T20:40:21;101307.09;;;-0.62;82.22
31092;BME280;17747;51.070;10.930;2023-02-02T20:41:54;101305.44;;;-0.62;82.00
31092;BME280;17747;51.070;10.930;2023-02-02T20:43:26;101295.50;;;-0.55;82.55
31092;BME280;17747;51.070;10.930;2023-02-02T20:44:58;101294.81;;;-0.51;82.59
31092;BME280;17747;51.070;10.930;2023-02-02T20:46:29;101297.03;;;-0.59;82.79
31092;BME280;17747;51.070;10.930;2023-02-02T20:48:03;101295.13;;;-0.65;82.50
31092;BME280;17747;51.070;10.930;2023-02-02T20:49:37;101294.81;;;-0.51;81.78
31092;BME280;17747;51.070;10.930;2023-02-02T20:51:09;101288.59;;;-0.58;81.96
31092;BME280;17747;51.070;10.930;2023-02-02T20:52:41;101292.41;;;-0.69;81.16
31092;BME280;17747;51.070;10.930;2023-02-02T20:54:13;101288.25;;;-0.67;81.22
31092;BME280;17747;51.070;10.930;2023-02-02T20:55:44;101281.75;;;-0.59;81.62
31092;BME280;17747;51.070;10.930;2023-02-02T20:57:16;101277.38;;;-0.63;81.39
31092;BME280;17747;51.070;10.930;2023-02-02T20:58:48;101283.34;;;-0.63;81.02
31092;BME280;17747;51.070;10.930;2023-02-02T21:00:19;101272.91;;;-0.69;80.99
31092;BME280;17747;51.070;10.930;2023-02-02T21:01:56;101272.31;;;-0.84;81.22
31092;BME280;17747;51.070;10.930;2023-02-02T21:03:30;101275.56;;;-0.88;81.43
31092;BME280;17747;51.070;10.930;2023-02-02T21:05:01;101280.47;;;-0.70;82.80
31092;BME280;17747;51.070;10.930;2023-02-02T21:06:34;101280.78;;;-0.63;82.43
31092;BME280;17747;51.070;10.930;2023-02-02T21:08:05;101278.53;;;-0.55;81.66
31092;BME280;17747;51.070;10.930;2023-02-02T21:09:37;101275.28;;;-0.51;82.24
31092;BME280;17747;51.070;10.930;2023-02-02T21:11:09;101268.59;;;-0.49;81.86
31092;BME280;17747;51.070;10.930;2023-02-02T21:12:40;101269.53;;;-0.45;82.27
31092;BME280;17747;51.070;10.930;2023-02-02T21:14:12;101265.09;;;-0.51;82.65
31092;BME280;17747;51.070;10.930;2023-02-02T21:15:44;101264.44;;;-0.45;82.73
31092;BME280;17747;51.070;10.930;2023-02-02T21:17:15;101263.88;;;-0.38;81.84
31092;BME280;17747;51.070;10.930;2023-02-02T21:18:48;101262.72;;;-0.46;82.00
31092;BME280;17747;51.070;10.930;2023-02-02T21:20:20;101261.91;;;-0.45;80.94
31092;BME280;17747;51.070;10.930;2023-02-02T21:21:52;101259.34;;;-0.45;81.07
31092;BME280;17747;51.070;10.930;2023-02-02T21:23:25;101258.59;;;-0.43;81.69
31092;BME280;17747;51.070;10.930;2023-02-02T21:24:56;101249.81;;;-0.51;82.01
31092;BME280;17747;51.070;10.930;2023-02-02T21:26:28;101252.94;;;-0.58;82.86
31092;BME280;17747;51.070;10.930;2023-02-02T21:27:59;101247.22;;;-0.52;81.86
31092;BME280;17747;51.070;10.930;2023-02-02T21:29:31;101248.19;;;-0.71;83.25
31092;BME280;17747;51.070;10.930;2023-02-02T21:31:03;101244.25;;;-0.63;82.37
31092;BME280;17747;51.070;10.930;2023-02-02T21:32:36;101248.97;;;-0.51;83.27
31092;BME280;17747;51.070;10.930;2023-02-02T21:34:09;101240.84;;;-0.41;82.88
31092;BME280;17747;51.070;10.930;2023-02-02T21:35:41;101237.53;;;-0.39;81.83
31092;BME280;17747;51.070;10.930;2023-02-02T21:37:13;101236.88;;;-0.33;82.40
31092;BME280;17747;51.070;10.930;2023-02-02T21:38:45;101227.72;;;-0.28;83.11
31092;BME280;17747;51.070;10.930;2023-02-02T21:40:22;101230.38;;;-0.25;82.33
31092;BME280;17747;51.070;10.930;2023-02-02T21:42:10;101226.34;;;-0.19;82.37
31092;BME280;17747;51.070;10.930;2023-02-02T21:43:43;101229.97;;;-0.14;81.74
31092;BME280;17747;51.070;10.930;2023-02-02T21:45:32;101228.06;;;-0.19;81.83
31092;BME280;17747;51.070;10.930;2023-02-02T21:47:18;101226.53;;;-0.14;81.88
31092;BME280;17747;51.070;10.930;2023-02-02T21:48:52;101224.19;;;-0.08;81.61
31092;BME280;17747;51.070;10.930;2023-02-02T21:50:28;101225.28;;;-0.02;81.79
31092;BME280;17747;51.070;10.930;2023-02-02T21:52:09;101222.09;;;0.04;81.49
31092;BME280;17747;51.070;10.930;2023-02-02T21:53:41;101216.97;;;0.04;80.88
31092;BME280;17747;51.070;10.930;2023-02-02T21:55:29;101215.34;;;0.06;81.57
31092;BME280;17747;51.070;10.930;2023-02-02T21:57:01;101217.97;;;0.08;80.84
31092;BME280;17747;51.070;10.930;2023-02-02T21:58:35;101216.44;;;0.13;80.96
31092;BME280;17747;51.070;10.930;2023-02-02T22:00:19;101209.81;;;0.18;82.00
31092;BME280;17747;51.070;10.930;2023-02-02T22:01:53;101204.84;;;0.22;81.38
31092;BME280;17747;51.070;10.930;2023-02-02T22:03:28;101205.03;;;0.27;81.03
31092;BME280;17747;51.070;10.930;2023-02-02T22:05:12;101210.16;;;0.28;80.47
31092;BME280;17747;51.070;10.930;2023-02-02T22:06:48;101214.41;;;0.28;80.78
31092;BME280;17747;51.070;10.930;2023-02-02T22:08:22;101216.16;;;0.29;81.10
31092;BME280;17747;51.070;10.930;2023-02-02T22:09:56;101216.28;;;0.33;80.77
31092;BME280;17747;51.070;10.930;2023-02-02T22:11:33;101217.16;;;0.34;80.66
31092;BME280;17747;51.070;10.930;2023-02-02T22:13:13;101218.84;;;0.33;80.56
31092;BME280;17747;51.070;10.930;2023-02-02T22:14:47;101218.06;;;0.36;80.62
31092;BME280;17747;51.070;10.930;2023-02-02T22:16:19;101217.38;;;0.40;80.96
31092;BME280;17747;51.070;10.930;2023-02-02T22:17:51;101214.66;;;0.35;81.71
31092;BME280;17747;51.070;10.930;2023-02-02T22:19:32;101214.06;;;0.42;81.03
31092;BME280;17747;51.070;10.930;2023-02-02T22:21:05;101214.25;;;0.48;81.05
31092;BME280;17747;51.070;10.930;2023-02-02T22:22:40;101206.88;;;0.57;81.27
31092;BME280;17747;51.070;10.930;2023-02-02T22:24:13;101202.13;;;0.68;81.11
31092;BME280;17747;51.070;10.930;2023-02-02T22:25:46;101209.00;;;0.71;80.40
31092;BME280;17747;51.070;10.930;2023-02-02T22:27:21;101202.28;;;0.73;80.53
31092;BME280;17747;51.070;10.930;2023-02-02T22:28:51;101199.78;;;0.74;80.79
31092;BME280;17747;51.070;10.930;2023-02-02T22:30:26;101201.66;;;0.80;80.45
31092;BME280;17747;51.070;10.930;2023-02-02T22:31:58;101205.97;;;0.81;80.95